Time;durP1;ratioP1;P1;durP2;ratioP2;P2;SDS_P1;SDS_P2;PMS_P1;PMS_P2;Temp;Humidity;BMP_temperature;BMP_pressure;BME280_temperature;BME280_humidity;BME280_pressure;Samples;Min_cycle;Max_cycle;Signal;HPM_P1;HPM_P2
2021/05/18 00:02:07;;;;;;;;;;;9.10;99.90;;;;;;5093395;28;20377;-65
2021/05/18 00:04:33;;;;;;;;;;;9.00;99.90;;;;;;5093223;28;19923;-65
2021/05/18 00:06:59;;;;;;;;;;;9.00;99.90;;;;;;5091812;28;19915;-65
2021/05/18 00:12:09;;;;;;;;;;;8.90;99.90;;;;;;5099567;28;19955;-65
2021/05/18 00:14:36;;;;;;;;;;;8.80;99.90;;;;;;5092342;28;20388;-66
2021/05/18 00:17:02;;;;;;;;;;;8.80;99.90;;;;;;5092728;28;19913;-65
2021/05/18 00:19:27;;;;;;;;;;;8.80;99.90;;;;;;5084965;28;19916;-64
2021/05/18 00:21:53;;;;;;;;;;;8.80;99.90;;;;;;5091184;28;19916;-65
2021/05/18 00:24:19;;;;;;;;;;;8.80;99.90;;;;;;5092866;28;19916;-65
2021/05/18 00:26:45;;;;;;;;;;;8.80;99.90;;;;;;5092330;28;20398;-65
2021/05/18 00:29:11;;;;;;;;;;;8.80;99.90;;;;;;5084958;28;19923;-65
2021/05/18 00:31:37;;;;;;;;;;;8.80;99.90;;;;;;5084040;28;19920;-65
2021/05/18 00:34:03;;;;;;;;;;;8.80;99.90;;;;;;5089862;28;19935;-65
2021/05/18 00:36:29;;;;;;;;;;;8.80;99.90;;;;;;5084418;28;20308;-65
2021/05/18 00:38:55;;;;;;;;;;;8.90;99.90;;;;;;5086543;28;19916;-65
2021/05/18 00:41:21;;;;;;;;;;;8.90;99.90;;;;;;5088163;28;19919;-65
2021/05/18 00:43:47;;;;;;;;;;;8.90;99.90;;;;;;5092241;28;19916;-66
2021/05/18 00:46:13;;;;;;;;;;;8.90;99.90;;;;;;5092503;28;19916;-66
2021/05/18 00:48:39;;;;;;;;;;;8.90;99.90;;;;;;5092162;28;20361;-66
2021/05/18 00:51:06;;;;;;;;;;;8.80;99.90;;;;;;5092447;28;20002;-67
2021/05/18 00:53:32;;;;;;;;;;;8.80;99.90;;;;;;5090882;28;19909;-65
2021/05/18 00:58:34;;;;;;;;;;;8.80;99.90;;;;;;5091957;28;19912;-65
2021/05/18 01:01:01;;;;;;;;;;;8.80;99.90;;;;;;5092220;28;19915;-67
2021/05/18 01:03:28;;;;;;;;;;;8.80;99.90;;;;;;5092232;28;20300;-65
2021/05/18 01:08:38;;;;;;;;;;;8.70;99.90;;;;;;5097224;28;19919;-65
2021/05/18 01:11:04;;;;;;;;;;;8.70;99.90;;;;;;5088709;28;19912;-65
2021/05/18 01:13:32;;;;;;;;;;;8.70;99.90;;;;;;5086161;28;19917;-64
2021/05/18 01:15:58;;;;;;;;;;;8.70;99.90;;;;;;5089406;28;19951;-64
2021/05/18 01:18:23;;;;;;;;;;;8.70;99.90;;;;;;5087499;28;19952;-65
2021/05/18 01:20:54;;;;;;;;;;;8.70;99.90;;;;;;5087037;28;19923;-65
2021/05/18 01:23:19;;;;;;;;;;;8.80;99.90;;;;;;5092194;28;19920;-65
2021/05/18 01:25:45;;;;;;;;;;;8.80;99.90;;;;;;5086949;28;19916;-65
2021/05/18 01:28:11;;;;;;;;;;;8.80;99.90;;;;;;5088474;28;19916;-65
2021/05/18 01:30:37;;;;;;;;;;;8.80;99.90;;;;;;5091989;28;19919;-65
2021/05/18 01:33:03;;;;;;;;;;;8.80;99.90;;;;;;5090670;28;20405;-65
2021/05/18 01:35:29;;;;;;;;;;;8.80;99.90;;;;;;5092122;28;19916;-65
2021/05/18 01:37:55;;;;;;;;;;;8.90;99.90;;;;;;5090596;28;19908;-65
2021/05/18 01:42:53;;;;;;;;;;;8.90;99.90;;;;;;5093365;28;20392;-65
2021/05/18 01:45:19;;;;;;;;;;;9.00;99.90;;;;;;5095614;28;19908;-65
2021/05/18 01:47:52;;;;;;;;;;;9.00;99.90;;;;;;5095621;28;20297;-66
2021/05/18 01:50:18;;;;;;;;;;;9.00;99.90;;;;;;5093647;28;19912;-66
2021/05/18 01:52:44;;;;;;;;;;;9.00;99.90;;;;;;5092767;28;19913;-65
2021/05/18 01:55:11;;;;;;;;;;;9.10;99.90;;;;;;5094504;28;19943;-65
2021/05/18 01:57:37;;;;;;;;;;;9.10;99.90;;;;;;5090737;28;19916;-66
2021/05/18 02:00:04;;;;;;;;;;;9.10;99.90;;;;;;5095366;28;19912;-66
2021/05/18 02:02:29;;;;;;;;;;;9.10;99.90;;;;;;5095161;28;19923;-65
2021/05/18 02:04:57;;;;;;;;;;;9.10;99.90;;;;;;5095513;28;19912;-65
2021/05/18 02:07:26;;;;;;;;;;;9.20;99.90;;;;;;5095239;28;19931;-65
2021/05/18 02:09:52;;;;;;;;;;;9.10;99.90;;;;;;5093604;28;19923;-65
2021/05/18 02:12:18;;;;;;;;;;;9.10;99.90;;;;;;5087796;28;19916;-65
2021/05/18 02:14:47;;;;;;;;;;;9.10;99.90;;;;;;5094453;28;19924;-65
2021/05/18 02:17:36;;;;;;;;;;;9.20;99.90;;;;;;5091341;28;19916;-65
2021/05/18 02:25:29;;;;;;;;;;;9.30;99.90;;;;;;5101646;28;19915;-65
2021/05/18 02:27:55;;;;;;;;;;;9.30;99.90;;;;;;5094600;28;20280;-66
2021/05/18 02:30:21;;;;;;;;;;;9.30;99.90;;;;;;5094730;28;19912;-65
2021/05/18 02:32:47;;;;;;;;;;;9.40;99.90;;;;;;5093669;28;19930;-66
2021/05/18 02:35:13;;;;;;;;;;;9.40;99.90;;;;;;5090116;28;19928;-65
2021/05/18 02:37:40;;;;;;;;;;;9.40;99.90;;;;;;5092851;28;19923;-66
2021/05/18 02:40:06;;;;;;;;;;;9.40;99.90;;;;;;5094335;28;19916;-65
2021/05/18 02:42:32;;;;;;;;;;;9.40;99.90;;;;;;5092559;28;20280;-65
2021/05/18 02:45:05;;;;;;;;;;;9.50;99.90;;;;;;5093381;28;19919;-65
2021/05/18 02:50:15;;;;;;;;;;;9.40;99.90;;;;;;5099462;28;19923;-65
2021/05/18 02:52:42;;;;;;;;;;;9.50;99.90;;;;;;5094394;28;20336;-65
2021/05/18 02:55:10;;;;;;;;;;;9.50;99.90;;;;;;5093279;28;20357;-66
2021/05/18 02:57:37;;;;;;;;;;;9.50;99.90;;;;;;5090520;28;19924;-65
2021/05/18 03:00:22;;;;;;;;;;;9.50;99.90;;;;;;5093921;28;19923;-65
2021/05/18 03:02:50;;;;;;;;;;;9.50;99.90;;;;;;5092257;28;19916;-65
2021/05/18 03:05:16;;;;;;;;;;;9.50;99.90;;;;;;5090928;28;20276;-65
2021/05/18 03:07:42;;;;;;;;;;;9.50;99.90;;;;;;5092273;28;19912;-65
2021/05/18 03:10:08;;;;;;;;;;;9.50;99.90;;;;;;5093551;28;20365;-65
2021/05/18 03:12:34;;;;;;;;;;;9.50;99.90;;;;;;5093971;28;20276;-66
2021/05/18 03:15:00;;;;;;;;;;;9.50;99.90;;;;;;5093092;28;19959;-64
2021/05/18 03:17:26;;;;;;;;;;;9.50;99.90;;;;;;5086294;28;19931;-64
2021/05/18 03:19:52;;;;;;;;;;;9.50;99.90;;;;;;5091339;28;19917;-65
2021/05/18 03:22:18;;;;;;;;;;;9.50;99.90;;;;;;5092710;28;19916;-65
2021/05/18 03:24:44;;;;;;;;;;;9.60;99.90;;;;;;5093731;28;19916;-65
2021/05/18 03:27:11;;;;;;;;;;;9.60;99.90;;;;;;5090570;28;19912;-65
2021/05/18 03:29:37;;;;;;;;;;;9.70;99.90;;;;;;5089175;28;19998;-65
2021/05/18 03:34:48;;;;;;;;;;;9.80;99.90;;;;;;5094851;28;19931;-66
2021/05/18 03:38:05;;;;;;;;;;;9.80;99.90;;;;;;5088078;28;19915;-65
2021/05/18 03:40:06;;;;;;;;;;;9.80;99.90;;;;;;5090357;28;19923;-66
2021/05/18 03:42:38;;;;;;;;;;;9.80;99.90;;;;;;5093341;28;19912;-66
2021/05/18 03:45:13;;;;;;;;;;;9.80;99.90;;;;;;5088232;28;19939;-66
2021/05/18 04:04:22;;;;;;;;;;;10.00;99.90;;;;;;5091917;28;19922;-66
2021/05/18 04:18:04;;;;;;;;;;;10.40;99.90;;;;;;5092610;28;19927;-66
2021/05/18 04:20:41;;;;;;;;;;;10.40;99.90;;;;;;5091340;28;20372;-66
2021/05/18 04:40:22;;;;;;;;;;;10.40;99.90;;;;;;5083571;28;19943;-67
2021/05/18 05:01:09;;;;;;;;;;;10.60;99.90;;;;;;5100222;28;19915;-66
2021/05/18 05:06:32;;;;;;;;;;;10.80;99.90;;;;;;5099707;28;19919;-66
2021/05/18 05:14:17;;;;;;;;;;;10.90;99.90;;;;;;5093336;28;20003;-66
2021/05/18 05:16:43;;;;;;;;;;;10.90;99.90;;;;;;5089062;28;20374;-66
2021/05/18 05:19:09;;;;;;;;;;;11.00;99.90;;;;;;5096983;28;19961;-65
2021/05/18 05:21:35;;;;;;;;;;;10.90;99.90;;;;;;5096450;28;19923;-67
2021/05/18 05:24:01;;;;;;;;;;;11.00;99.90;;;;;;5096516;28;19934;-66
2021/05/18 05:26:27;;;;;;;;;;;11.00;99.90;;;;;;5096307;28;19908;-65
2021/05/18 05:28:53;;;;;;;;;;;11.00;99.90;;;;;;5094996;28;20365;-65
2021/05/18 05:31:19;;;;;;;;;;;10.90;99.90;;;;;;5096375;28;19916;-66
2021/05/18 05:33:45;;;;;;;;;;;10.80;99.90;;;;;;5096305;28;19977;-66
2021/05/18 05:36:11;;;;;;;;;;;10.80;99.90;;;;;;5093526;28;19921;-65
2021/05/18 05:38:38;;;;;;;;;;;10.80;99.90;;;;;;5084680;28;19925;-66
2021/05/18 05:41:04;;;;;;;;;;;10.70;99.90;;;;;;5087168;28;19912;-66
2021/05/18 05:43:30;;;;;;;;;;;10.70;99.90;;;;;;5086635;28;19919;-65
2021/05/18 05:45:56;;;;;;;;;;;10.70;99.90;;;;;;5085703;28;21532;-67
2021/05/18 05:48:22;;;;;;;;;;;10.70;99.90;;;;;;5080898;28;19928;-66
2021/05/18 05:50:48;;;;;;;;;;;10.70;99.90;;;;;;5077510;28;19925;-66
2021/05/18 05:53:14;;;;;;;;;;;10.70;99.90;;;;;;5079054;28;19920;-66
2021/05/18 05:55:40;;;;;;;;;;;10.70;99.90;;;;;;5088507;28;19920;-65
2021/05/18 05:58:06;;;;;;;;;;;10.70;99.90;;;;;;5094644;28;19918;-65
2021/05/18 06:00:32;;;;;;;;;;;10.70;99.90;;;;;;5095054;28;20292;-66
2021/05/18 06:02:58;;;;;;;;;;;10.60;99.90;;;;;;5094847;28;19927;-66
2021/05/18 06:05:24;;;;;;;;;;;10.70;99.90;;;;;;5095734;28;19935;-65
2021/05/18 06:07:50;;;;;;;;;;;10.70;99.90;;;;;;5092810;28;19958;-66
2021/05/18 06:10:24;;;;;;;;;;;10.70;99.90;;;;;;5088187;28;20380;-66
2021/05/18 06:47:32;;;;;;;;;;;11.20;99.90;;;;;;5092809;28;19923;-65
2021/05/18 06:50:10;;;;;;;;;;;11.20;99.90;;;;;;5085538;28;19919;-65
2021/05/18 06:52:36;;;;;;;;;;;11.30;99.90;;;;;;5079811;28;19917;-65
2021/05/18 06:55:03;;;;;;;;;;;11.30;99.90;;;;;;5075698;28;20381;-65
2021/05/18 06:57:31;;;;;;;;;;;11.40;99.90;;;;;;5084988;28;20415;-65
2021/05/18 07:00:11;;;;;;;;;;;11.50;99.90;;;;;;5094182;28;19919;-66
2021/05/18 07:02:38;;;;;;;;;;;11.50;99.90;;;;;;5073820;28;19920;-66
2021/05/18 07:05:06;;;;;;;;;;;11.70;99.90;;;;;;5074311;28;19913;-66
2021/05/18 07:07:34;;;;;;;;;;;11.80;99.90;;;;;;5090483;28;19912;-66
2021/05/18 07:10:00;;;;;;;;;;;11.90;99.90;;;;;;5094055;28;19916;-66
2021/05/18 07:12:26;;;;;;;;;;;12.10;99.90;;;;;;5093736;28;19916;-65
2021/05/18 07:14:52;;;;;;;;;;;12.50;99.90;;;;;;5081900;28;19924;-65
2021/05/18 07:17:17;;;;;;;;;;;12.60;99.90;;;;;;5073920;28;20027;-66
2021/05/18 07:19:45;;;;;;;;;;;12.50;99.90;;;;;;5074041;28;19928;-65
2021/05/18 07:22:11;;;;;;;;;;;12.40;99.90;;;;;;5073798;28;19924;-65
2021/05/18 07:24:37;;;;;;;;;;;12.30;99.90;;;;;;5079409;28;19912;-65
2021/05/18 07:27:03;;;;;;;;;;;12.20;99.90;;;;;;5093748;28;20300;-65
2021/05/18 07:29:29;;;;;;;;;;;12.10;99.90;;;;;;5093147;28;19912;-66
2021/05/18 07:31:55;;;;;;;;;;;12.30;99.90;;;;;;5082453;28;20285;-66
2021/05/18 07:34:21;;;;;;;;;;;12.40;99.90;;;;;;5074030;28;19928;-65
2021/05/18 07:36:47;;;;;;;;;;;12.30;99.90;;;;;;5092508;28;19931;-66
2021/05/18 07:39:13;;;;;;;;;;;12.00;99.90;;;;;;5092696;28;19923;-66
2021/05/18 07:41:40;;;;;;;;;;;12.00;99.90;;;;;;5092620;28;19916;-66
2021/05/18 07:44:06;;;;;;;;;;;12.40;99.90;;;;;;5092498;28;19913;-65
2021/05/18 07:46:32;;;;;;;;;;;12.90;99.90;;;;;;5080281;28;20265;-65
2021/05/18 07:59:33;;;;;;;;;;;13.40;99.90;;;;;;5088756;28;19923;-66
2021/05/18 08:07:28;;;;;;;;;;;13.70;99.90;;;;;;5098775;28;19923;-68
2021/05/18 08:12:39;;;;;;;;;;;13.90;99.90;;;;;;5098026;28;19923;-66
2021/05/18 08:46:38;;;;;;;;;;;14.70;99.90;;;;;;5087724;28;19912;-66
2021/05/18 09:49:14;;;;;;;;;;;14.30;99.90;;;;;;5090802;28;19982;-67
2021/05/18 10:35:38;;;;;;;;;;;17.70;99.90;;;;;;5086899;28;20019;-67
2021/05/18 10:38:08;;;;;;;;;;;17.10;99.90;;;;;;5083437;28;19921;-67
2021/05/18 10:40:34;;;;;;;;;;;17.30;99.90;;;;;;5081249;28;19923;-69
2021/05/18 10:43:10;;;;;;;;;;;18.10;99.90;;;;;;5078373;28;19912;-66
2021/05/18 10:45:47;;;;;;;;;;;17.90;99.90;;;;;;5094351;28;19924;-68
2021/05/18 10:48:14;;;;;;;;;;;18.90;99.90;;;;;;5088928;28;19913;-67
2021/05/18 10:50:40;;;;;;;;;;;19.50;99.90;;;;;;5077635;28;19912;-70
2021/05/18 10:53:19;;;;;;;;;;;19.30;99.90;;;;;;5077584;28;19921;-67
2021/05/18 10:56:04;;;;;;;;;;;18.70;99.90;;;;;;5093656;28;19935;-67
2021/05/18 10:58:31;;;;;;;;;;;19.70;99.90;;;;;;5097388;28;19912;-67
2021/05/18 11:01:00;;;;;;;;;;;19.70;99.90;;;;;;5098516;28;19912;-66
2021/05/18 11:03:26;;;;;;;;;;;19.50;99.90;;;;;;5100999;28;19926;-68
2021/05/18 11:05:52;;;;;;;;;;;19.10;99.90;;;;;;5101844;28;20617;-67
2021/05/18 11:08:18;;;;;;;;;;;19.20;99.90;;;;;;5076463;28;19920;-69
2021/05/18 11:10:45;;;;;;;;;;;18.90;99.90;;;;;;5072779;28;19912;-67
2021/05/18 11:13:11;;;;;;;;;;;18.50;99.90;;;;;;5081761;28;19912;-68
2021/05/18 11:15:37;;;;;;;;;;;18.80;99.90;;;;;;5084781;28;20288;-69
2021/05/18 11:18:05;;;;;;;;;;;18.20;99.90;;;;;;5087298;28;19977;-68
2021/05/18 11:25:52;;;;;;;;;;;18.70;99.90;;;;;;5093926;28;19924;-67
2021/05/18 11:28:19;;;;;;;;;;;18.70;99.90;;;;;;5090158;28;19912;-67
2021/05/18 11:30:46;;;;;;;;;;;18.40;99.90;;;;;;5084396;28;19919;-68
2021/05/18 11:33:12;;;;;;;;;;;18.70;99.90;;;;;;5092359;28;19924;-68
2021/05/18 11:35:38;;;;;;;;;;;17.70;99.90;;;;;;5093595;28;20395;-68
2021/05/18 11:38:11;;;;;;;;;;;17.50;99.90;;;;;;5089451;28;19922;-70
2021/05/18 11:40:37;;;;;;;;;;;17.10;99.90;;;;;;5076097;28;19939;-69
2021/05/18 11:43:13;;;;;;;;;;;16.80;99.90;;;;;;5084256;28;19916;-70
2021/05/18 11:45:39;;;;;;;;;;;16.60;99.90;;;;;;5083633;28;19916;-66
2021/05/18 11:48:11;;;;;;;;;;;16.10;99.90;;;;;;5075922;28;20002;-68
2021/05/18 11:50:36;;;;;;;;;;;16.10;99.90;;;;;;5078849;28;19923;-69
2021/05/18 11:53:02;;;;;;;;;;;15.80;99.90;;;;;;5077579;28;20281;-68
2021/05/18 11:55:29;;;;;;;;;;;15.70;99.90;;;;;;5073534;28;19916;-67
2021/05/18 11:57:55;;;;;;;;;;;15.50;99.90;;;;;;5072402;28;19920;-66
2021/05/18 12:00:25;;;;;;;;;;;15.00;99.90;;;;;;5080415;28;19917;-67
2021/05/18 12:02:58;;;;;;;;;;;14.80;99.90;;;;;;5079341;28;19916;-68
2021/05/18 12:05:24;;;;;;;;;;;14.90;99.90;;;;;;5092555;28;19939;-70
2021/05/18 12:07:49;;;;;;;;;;;15.10;99.90;;;;;;5072503;28;20512;-70
2021/05/18 12:10:34;;;;;;;;;;;14.90;99.90;;;;;;5078394;28;19917;-67
2021/05/18 12:13:00;;;;;;;;;;;14.80;99.90;;;;;;5073902;28;19939;-68
2021/05/18 12:15:27;;;;;;;;;;;14.50;99.90;;;;;;5093146;28;20407;-68
2021/05/18 12:17:53;;;;;;;;;;;14.30;99.90;;;;;;5077624;28;19929;-67
2021/05/18 12:20:19;;;;;;;;;;;14.50;99.90;;;;;;5072805;28;19916;-68
2021/05/18 12:22:45;;;;;;;;;;;14.50;99.90;;;;;;5078903;28;19935;-68
2021/05/18 12:25:22;;;;;;;;;;;14.50;99.90;;;;;;5081869;28;19920;-67
2021/05/18 12:27:48;;;;;;;;;;;14.70;99.90;;;;;;5093272;28;20281;-68
2021/05/18 12:30:14;;;;;;;;;;;14.40;99.90;;;;;;5077841;28;19916;-67
2021/05/18 12:32:49;;;;;;;;;;;14.40;99.90;;;;;;5075283;28;19928;-67
2021/05/18 12:35:17;;;;;;;;;;;14.30;99.90;;;;;;5080656;28;20382;-67
2021/05/18 12:37:44;;;;;;;;;;;14.30;99.90;;;;;;5085048;28;19932;-67
2021/05/18 12:40:18;;;;;;;;;;;14.40;99.90;;;;;;5089750;28;19912;-66
2021/05/18 12:42:45;;;;;;;;;;;14.40;99.90;;;;;;5087753;28;20288;-66
2021/05/18 12:45:26;;;;;;;;;;;14.50;99.90;;;;;;5091655;28;19916;-67
2021/05/18 12:47:57;;;;;;;;;;;14.60;99.90;;;;;;5078814;28;19920;-66
2021/05/18 12:50:25;;;;;;;;;;;14.50;99.90;;;;;;5075978;28;20392;-66
2021/05/18 12:52:52;;;;;;;;;;;14.60;99.90;;;;;;5072433;28;19975;-66
2021/05/18 12:55:22;;;;;;;;;;;14.70;99.90;;;;;;5075790;28;19912;-66
2021/05/18 12:57:54;;;;;;;;;;;14.90;99.90;;;;;;5073606;28;19939;-68
2021/05/18 13:00:21;;;;;;;;;;;14.70;99.90;;;;;;5093576;28;19912;-67
2021/05/18 13:02:47;;;;;;;;;;;14.70;99.90;;;;;;5092041;28;19923;-67
2021/05/18 13:05:19;;;;;;;;;;;14.70;99.90;;;;;;5092663;28;19923;-68
2021/05/18 13:08:04;;;;;;;;;;;14.80;99.90;;;;;;5092603;28;19912;-67
2021/05/18 13:10:39;;;;;;;;;;;15.00;99.90;;;;;;5073809;28;19912;-68
2021/05/18 13:13:05;;;;;;;;;;;15.00;99.90;;;;;;5080221;28;19924;-67
2021/05/18 13:15:31;;;;;;;;;;;14.90;99.90;;;;;;5090325;28;19913;-67
2021/05/18 13:17:57;;;;;;;;;;;15.00;99.90;;;;;;5090469;28;19931;-67
2021/05/18 13:20:24;;;;;;;;;;;15.10;99.90;;;;;;5079618;28;20261;-68
2021/05/18 13:22:58;;;;;;;;;;;15.00;99.90;;;;;;5074832;28;19923;-67
2021/05/18 13:28:08;;;;;;;;;;;14.90;99.90;;;;;;5088245;28;19939;-67
2021/05/18 13:30:35;;;;;;;;;;;15.00;99.90;;;;;;5091613;28;20365;-69
2021/05/18 13:33:01;;;;;;;;;;;15.20;99.90;;;;;;5091657;28;19924;-68
2021/05/18 13:35:28;;;;;;;;;;;15.20;99.90;;;;;;5082833;28;19967;-68
2021/05/18 13:37:55;;;;;;;;;;;15.40;99.90;;;;;;5085730;28;19936;-67
2021/05/18 13:40:21;;;;;;;;;;;15.40;99.90;;;;;;5095185;28;20373;-68
2021/05/18 13:42:51;;;;;;;;;;;15.60;99.90;;;;;;5094333;28;19923;-68
2021/05/18 13:45:17;;;;;;;;;;;15.70;99.90;;;;;;5095561;28;21474;-70
2021/05/18 13:47:43;;;;;;;;;;;16.00;99.90;;;;;;5094817;28;19913;-68
2021/05/18 13:50:10;;;;;;;;;;;15.90;99.90;;;;;;5091945;28;20332;-66
2021/05/18 13:52:35;;;;;;;;;;;15.90;99.90;;;;;;5081121;28;19916;-67
2021/05/18 13:55:01;;;;;;;;;;;15.80;99.90;;;;;;5075648;28;19923;-68
2021/05/18 13:57:27;;;;;;;;;;;15.50;99.90;;;;;;5082422;28;19970;-68
2021/05/18 13:59:54;;;;;;;;;;;15.20;99.90;;;;;;5077620;28;19919;-66
2021/05/18 14:02:20;;;;;;;;;;;15.30;99.90;;;;;;5087884;28;19916;-66
2021/05/18 14:04:46;;;;;;;;;;;15.10;99.90;;;;;;5089994;28;19916;-67
2021/05/18 14:07:43;;;;;;;;;;;15.20;99.90;;;;;;5079267;28;20444;-66
2021/05/18 14:10:09;;;;;;;;;;;15.30;99.90;;;;;;5082380;28;19919;-68
2021/05/18 14:12:36;;;;;;;;;;;15.40;99.90;;;;;;5075833;28;19963;-68
2021/05/18 14:15:03;;;;;;;;;;;15.50;99.90;;;;;;5076771;28;19913;-66
2021/05/18 14:17:29;;;;;;;;;;;15.10;99.90;;;;;;5088923;28;19927;-68
2021/05/18 14:19:55;;;;;;;;;;;15.30;99.90;;;;;;5078864;28;19970;-67
2021/05/18 14:22:21;;;;;;;;;;;15.10;99.90;;;;;;5079160;28;19923;-68
2021/05/18 14:27:18;;;;;;;;;;;15.40;99.90;;;;;;5085732;28;19912;-68
2021/05/18 14:29:45;;;;;;;;;;;15.50;99.90;;;;;;5083011;28;19917;-67
2021/05/18 14:32:11;;;;;;;;;;;15.70;99.90;;;;;;5082419;28;19998;-67
2021/05/18 14:34:37;;;;;;;;;;;15.60;99.90;;;;;;5087224;28;19924;-66
2021/05/18 14:37:03;;;;;;;;;;;15.60;99.90;;;;;;5080788;28;20312;-66
2021/05/18 14:39:55;;;;;;;;;;;15.40;99.90;;;;;;5078727;28;19919;-67
2021/05/18 14:45:06;;;;;;;;;;;15.50;99.90;;;;;;5097236;28;19924;-64
2021/05/18 14:47:42;;;;;;;;;;;15.50;99.90;;;;;;5088910;28;19916;-65
2021/05/18 14:55:37;;;;;;;;;;;15.10;99.90;;;;;;5080411;28;19928;-65
2021/05/18 14:58:03;;;;;;;;;;;14.80;99.90;;;;;;5076163;28;20336;-63
2021/05/18 15:00:29;;;;;;;;;;;14.80;99.90;;;;;;5075023;28;19939;-64
2021/05/18 15:02:55;;;;;;;;;;;14.90;99.90;;;;;;5090985;28;19931;-65
2021/05/18 15:05:22;;;;;;;;;;;14.90;99.90;;;;;;5082956;28;19917;-64
2021/05/18 15:07:49;;;;;;;;;;;14.80;99.90;;;;;;5072026;28;19913;-63
2021/05/18 15:10:15;;;;;;;;;;;14.70;99.90;;;;;;5080053;28;19923;-64
2021/05/18 15:12:41;;;;;;;;;;;14.50;99.90;;;;;;5081622;28;19916;-64
2021/05/18 15:15:07;;;;;;;;;;;14.50;99.90;;;;;;5080261;28;19920;-64
2021/05/18 15:17:33;;;;;;;;;;;14.60;99.90;;;;;;5085003;28;19920;-64
2021/05/18 15:20:00;;;;;;;;;;;14.60;99.90;;;;;;5078196;28;19912;-64
2021/05/18 15:22:27;;;;;;;;;;;14.70;99.90;;;;;;5074209;28;20415;-65
2021/05/18 15:24:54;;;;;;;;;;;14.60;99.90;;;;;;5087547;28;20284;-68
2021/05/18 15:27:20;;;;;;;;;;;14.70;99.90;;;;;;5093534;28;19986;-66
2021/05/18 15:29:46;;;;;;;;;;;14.60;99.90;;;;;;5084312;28;19919;-64
2021/05/18 15:32:12;;;;;;;;;;;14.70;99.90;;;;;;5074389;28;19920;-63
2021/05/18 15:34:38;;;;;;;;;;;14.70;99.90;;;;;;5073998;28;19935;-64
2021/05/18 15:37:04;;;;;;;;;;;14.80;99.90;;;;;;5089027;28;19923;-64
2021/05/18 15:39:30;;;;;;;;;;;15.20;99.90;;;;;;5078416;28;20297;-67
2021/05/18 15:41:56;;;;;;;;;;;15.30;99.90;;;;;;5073099;28;19912;-66
2021/05/18 15:44:22;;;;;;;;;;;15.30;99.90;;;;;;5079219;28;19923;-67
2021/05/18 15:46:48;;;;;;;;;;;15.30;99.90;;;;;;5077178;28;20292;-66
2021/05/18 15:49:14;;;;;;;;;;;15.00;99.90;;;;;;5087526;28;19919;-65
2021/05/18 15:51:40;;;;;;;;;;;14.80;99.90;;;;;;5085536;28;19916;-68
2021/05/18 15:54:06;;;;;;;;;;;14.60;99.90;;;;;;5071815;28;20020;-65
2021/05/18 15:56:35;;;;;;;;;;;14.50;99.90;;;;;;5075627;28;19935;-66
2021/05/18 15:59:01;;;;;;;;;;;14.50;99.90;;;;;;5073194;28;20393;-65
2021/05/18 16:01:27;;;;;;;;;;;14.40;99.90;;;;;;5080469;28;19952;-69
2021/05/18 16:03:53;;;;;;;;;;;14.10;99.90;;;;;;5087932;28;19916;-67
2021/05/18 16:06:21;;;;;;;;;;;14.10;99.90;;;;;;5092210;28;19948;-68
2021/05/18 16:11:13;;;;;;;;;;;14.20;99.90;;;;;;5085229;28;20373;-67
2021/05/18 16:13:39;;;;;;;;;;;14.10;99.90;;;;;;5083112;28;19926;-69
2021/05/18 16:16:11;;;;;;;;;;;13.90;99.90;;;;;;5090126;28;19916;-67
2021/05/18 16:18:41;;;;;;;;;;;13.90;99.90;;;;;;5078294;28;19924;-66
2021/05/18 16:21:07;;;;;;;;;;;13.70;99.90;;;;;;5080357;28;19917;-67
2021/05/18 16:23:35;;;;;;;;;;;13.40;99.90;;;;;;5085571;28;19916;-67
2021/05/18 16:26:01;;;;;;;;;;;13.30;99.90;;;;;;5080438;28;19935;-67
2021/05/18 16:28:26;;;;;;;;;;;13.30;99.90;;;;;;5072437;28;20373;-67
2021/05/18 16:30:52;;;;;;;;;;;13.40;99.90;;;;;;5078200;28;19951;-66
2021/05/18 16:33:19;;;;;;;;;;;13.40;99.90;;;;;;5072542;28;19928;-66
2021/05/18 16:35:45;;;;;;;;;;;13.40;99.90;;;;;;5076010;28;20292;-67
2021/05/18 16:38:10;;;;;;;;;;;13.20;99.90;;;;;;5089406;28;19920;-67
2021/05/18 16:40:36;;;;;;;;;;;13.10;99.90;;;;;;5092152;28;19920;-67
2021/05/18 16:43:02;;;;;;;;;;;13.00;99.90;;;;;;5078834;28;19912;-67
2021/05/18 16:45:28;;;;;;;;;;;13.00;99.90;;;;;;5072880;28;19920;-67
2021/05/18 16:47:54;;;;;;;;;;;12.90;99.90;;;;;;5080508;28;20274;-67
2021/05/18 16:50:20;;;;;;;;;;;12.80;99.90;;;;;;5087695;28;19924;-67
2021/05/18 16:52:46;;;;;;;;;;;13.00;99.90;;;;;;5082027;28;19955;-67
2021/05/18 16:55:12;;;;;;;;;;;13.10;99.90;;;;;;5083722;28;19916;-68
2021/05/18 16:57:38;;;;;;;;;;;13.00;99.90;;;;;;5079531;28;20300;-67
2021/05/18 17:00:05;;;;;;;;;;;12.90;99.90;;;;;;5082389;28;19940;-67
2021/05/18 17:02:32;;;;;;;;;;;12.90;99.90;;;;;;5080915;28;19920;-67
2021/05/18 17:04:58;;;;;;;;;;;13.00;99.90;;;;;;5089515;28;19927;-67
2021/05/18 17:07:24;;;;;;;;;;;13.20;99.90;;;;;;5072561;28;19917;-67
2021/05/18 17:09:50;;;;;;;;;;;13.10;99.90;;;;;;5075671;28;19958;-67
2021/05/18 17:12:19;;;;;;;;;;;13.10;99.90;;;;;;5076517;28;19916;-67
2021/05/18 17:14:45;;;;;;;;;;;13.00;99.90;;;;;;5085359;28;19912;-66
2021/05/18 17:17:13;;;;;;;;;;;12.90;99.90;;;;;;5079331;28;19912;-66
2021/05/18 17:19:43;;;;;;;;;;;13.00;99.90;;;;;;5083633;28;20292;-65
2021/05/18 17:22:09;;;;;;;;;;;13.10;99.90;;;;;;5074601;28;20369;-67
2021/05/18 17:24:35;;;;;;;;;;;13.00;99.90;;;;;;5082813;28;19916;-67
2021/05/18 17:27:01;;;;;;;;;;;12.90;99.90;;;;;;5077128;28;19916;-67
2021/05/18 17:29:27;;;;;;;;;;;13.00;99.90;;;;;;5080069;28;19920;-68
2021/05/18 17:31:53;;;;;;;;;;;13.00;99.90;;;;;;5087068;28;19923;-67
2021/05/18 17:34:20;;;;;;;;;;;13.00;99.90;;;;;;5092164;28;19931;-72
2021/05/18 17:36:50;;;;;;;;;;;13.10;99.90;;;;;;5076082;28;19917;-76
2021/05/18 17:39:16;;;;;;;;;;;13.10;99.90;;;;;;5077990;28;19917;-73
2021/05/18 17:41:42;;;;;;;;;;;13.10;99.90;;;;;;5079421;28;19916;-71
2021/05/18 17:44:08;;;;;;;;;;;13.00;99.90;;;;;;5090191;28;19924;-73
2021/05/18 17:46:36;;;;;;;;;;;13.00;99.90;;;;;;5083411;28;19912;-72
2021/05/18 17:49:03;;;;;;;;;;;13.00;99.90;;;;;;5093990;28;19912;-68
2021/05/18 17:51:29;;;;;;;;;;;13.00;99.90;;;;;;5085827;28;20301;-69
2021/05/18 17:53:55;;;;;;;;;;;12.90;99.90;;;;;;5075620;28;20376;-68
2021/05/18 17:56:21;;;;;;;;;;;12.70;99.90;;;;;;5075620;28;19916;-69
2021/05/18 17:58:47;;;;;;;;;;;12.50;99.90;;;;;;5076291;28;19928;-69
2021/05/18 18:01:12;;;;;;;;;;;12.50;99.90;;;;;;5086501;28;19917;-70
2021/05/18 18:03:38;;;;;;;;;;;12.40;99.90;;;;;;5077523;28;19917;-71
2021/05/18 18:06:04;;;;;;;;;;;12.20;99.90;;;;;;5083836;28;19916;-70
2021/05/18 18:08:33;;;;;;;;;;;12.20;99.90;;;;;;5085770;28;19957;-70
2021/05/18 18:10:58;;;;;;;;;;;12.10;99.90;;;;;;5080065;28;19923;-70
2021/05/18 18:13:24;;;;;;;;;;;12.10;99.90;;;;;;5083275;28;20288;-71
2021/05/18 18:15:50;;;;;;;;;;;12.00;99.90;;;;;;5087874;28;19916;-70
2021/05/18 18:18:16;;;;;;;;;;;12.00;99.90;;;;;;5093223;28;19924;-70
2021/05/18 18:20:42;;;;;;;;;;;12.00;99.90;;;;;;5083541;28;19916;-67
2021/05/18 18:23:08;;;;;;;;;;;12.00;99.90;;;;;;5082188;28;20364;-69
2021/05/18 18:25:34;;;;;;;;;;;12.10;99.90;;;;;;5093058;28;19923;-67
2021/05/18 18:28:00;;;;;;;;;;;12.00;99.90;;;;;;5088947;28;19931;-69
2021/05/18 18:30:26;;;;;;;;;;;11.90;99.90;;;;;;5088017;28;19923;-68
2021/05/18 18:32:52;;;;;;;;;;;11.90;99.90;;;;;;5088668;28;19947;-68
2021/05/18 18:35:18;;;;;;;;;;;11.90;99.90;;;;;;5082095;28;19955;-68
2021/05/18 18:37:44;;;;;;;;;;;11.90;99.90;;;;;;5082498;28;19930;-68
2021/05/18 18:40:10;;;;;;;;;;;12.00;99.90;;;;;;5077995;28;19912;-69
2021/05/18 18:42:37;;;;;;;;;;;12.00;99.90;;;;;;5083894;28;19912;-68
2021/05/18 18:45:03;;;;;;;;;;;11.90;99.90;;;;;;5089247;28;19943;-68
2021/05/18 18:47:29;;;;;;;;;;;11.90;99.90;;;;;;5091503;28;19916;-68
2021/05/18 18:49:55;;;;;;;;;;;11.90;99.90;;;;;;5093193;28;19942;-67
2021/05/18 18:52:45;;;;;;;;;;;11.90;99.90;;;;;;5093728;28;19916;-67
2021/05/18 18:55:12;;;;;;;;;;;11.90;99.90;;;;;;5077925;27;19920;-66
2021/05/18 18:57:38;;;;;;;;;;;11.90;99.90;;;;;;5082427;28;19924;-68
2021/05/18 19:00:08;;;;;;;;;;;11.80;99.90;;;;;;5075294;28;19912;-67
2021/05/18 19:02:47;;;;;;;;;;;11.80;99.90;;;;;;5081027;28;19923;-67
2021/05/18 19:13:10;;;;;;;;;;;11.90;99.90;;;;;;5081803;28;19912;-67
2021/05/18 19:15:36;;;;;;;;;;;11.80;99.90;;;;;;5073804;28;19920;-67
2021/05/18 19:18:02;;;;;;;;;;;11.80;99.90;;;;;;5079441;28;19927;-66
2021/05/18 19:20:28;;;;;;;;;;;11.80;99.90;;;;;;5082865;28;19912;-67
2021/05/18 19:22:54;;;;;;;;;;;11.70;99.90;;;;;;5093051;28;20323;-67
2021/05/18 19:25:20;;;;;;;;;;;11.70;99.90;;;;;;5093651;28;20296;-67
2021/05/18 19:27:48;;;;;;;;;;;11.70;99.90;;;;;;5085496;28;19909;-67
2021/05/18 19:30:16;;;;;;;;;;;11.60;99.90;;;;;;5082233;28;19916;-67
2021/05/18 19:32:42;;;;;;;;;;;11.60;99.90;;;;;;5078788;28;19931;-68
2021/05/18 19:35:10;;;;;;;;;;;11.50;99.90;;;;;;5083664;28;19920;-67